Westville, Florida
Current Conditions -  °F | °C
As of 11:15 PM on Friday 24 Oct 2014 (Local Time) from K54J Reporting Station
Clear Clear  
Wind Chill: 55°   Ceiling: Unl
Heat Index: 55°   Visibility: 10mi
Dew Point: 48°   Wind: 5mph
Humidity: 77%   Direction: 320°NW
Pressure: 30.05"   Gusts: NA
Location:  30.77°N, 85.85°W
Report Text: K54J 250415Z AUTO 32004KT 10SM CLR 13/09 A3005 RMK AO2 T01300090
Loading
Personal Weather Stations






























Interactive Weather Map
Tropical Storm Tracking
New forecast layout! Learn more

10-Day Weather Forecast

Advertisements
Track Severe Weather on mobile